Marysville, Iowa
Current Conditions -  °F | °C
As of 6:35 PM on Tuesday 25 Nov 2014 (Local Time) from KOXV Reporting Station
Clear Clear  
Wind Chill: 21°   Ceiling: Unl
Heat Index: 28°   Visibility: 10mi
Dew Point: 12°   Wind: 7mph
Humidity: 51%   Direction: 140°SE
Pressure: 30.06"   Gusts: NA
Location:  41.1765°N, 92.9326°W
Report Text: KOXV 260035Z AUTO 14006KT 10SM CLR M02/M11 A3006 RMK AO2
Loading
Personal Weather Stations






























Interactive Weather Map New forecast layout! Learn more

10-Day Weather Forecast

Advertisements
Track Severe Weather on mobile